sensor_id;sensor_type;location;lat;lon;timestamp;pressure;altitude;pressure_sealevel;temperature;humidity
24031;BME280;12240;51.142;22.486;2023-04-21T00:01:39;99563.78;;;8.59;100.00
24031;BME280;12240;51.142;22.486;2023-04-21T00:04:07;99568.81;;;8.52;100.00
24031;BME280;12240;51.142;22.486;2023-04-21T00:06:36;99567.16;;;8.51;100.00
24031;BME280;12240;51.142;22.486;2023-04-21T00:09:04;99563.88;;;8.38;100.00
24031;BME280;12240;51.142;22.486;2023-04-21T00:11:32;99574.31;;;8.30;100.00
24031;BME280;12240;51.142;22.486;2023-04-21T00:14:01;99564.31;;;8.22;100.00
24031;BME280;12240;51.142;22.486;2023-04-21T00:16:29;99571.47;;;8.22;100.00
24031;BME280;12240;51.142;22.486;2023-04-21T00:18:58;99578.13;;;8.16;100.00
24031;BME280;12240;51.142;22.486;2023-04-21T00:21:26;99576.00;;;8.10;100.00
24031;BME280;12240;51.142;22.486;2023-04-21T00:23:54;99576.25;;;8.07;100.00
24031;BME280;12240;51.142;22.486;2023-04-21T00:26:22;99569.59;;;8.13;100.00
24031;BME280;12240;51.142;22.486;2023-04-21T00:28:52;99573.78;;;8.15;100.00
24031;BME280;12240;51.142;22.486;2023-04-21T00:31:20;99575.03;;;8.11;100.00
24031;BME280;12240;51.142;22.486;2023-04-21T00:33:48;99573.75;;;8.06;100.00
24031;BME280;12240;51.142;22.486;2023-04-21T00:36:17;99570.25;;;8.05;100.00
24031;BME280;12240;51.142;22.486;2023-04-21T00:38:46;99574.41;;;7.98;100.00
24031;BME280;12240;51.142;22.486;2023-04-21T00:41:15;99575.25;;;7.99;100.00
24031;BME280;12240;51.142;22.486;2023-04-21T00:44:07;99576.28;;;7.87;100.00
24031;BME280;12240;51.142;22.486;2023-04-21T00:46:37;99568.41;;;7.76;100.00
24031;BME280;12240;51.142;22.486;2023-04-21T00:49:06;99571.84;;;7.67;100.00
24031;BME280;12240;51.142;22.486;2023-04-21T00:51:36;99569.50;;;7.53;100.00
24031;BME280;12240;51.142;22.486;2023-04-21T00:54:07;99582.09;;;7.40;100.00
24031;BME280;12240;51.142;22.486;2023-04-21T00:56:36;99575.06;;;7.29;100.00
24031;BME280;12240;51.142;22.486;2023-04-21T00:59:04;99580.34;;;7.29;100.00
24031;BME280;12240;51.142;22.486;2023-04-21T01:01:32;99575.25;;;7.37;100.00
24031;BME280;12240;51.142;22.486;2023-04-21T01:04:04;99576.31;;;7.35;100.00
24031;BME280;12240;51.142;22.486;2023-04-21T01:06:32;99569.41;;;7.23;100.00
24031;BME280;12240;51.142;22.486;2023-04-21T01:09:01;99570.19;;;7.14;100.00
24031;BME280;12240;51.142;22.486;2023-04-21T01:11:31;99576.09;;;7.06;100.00
24031;BME280;12240;51.142;22.486;2023-04-21T01:14:00;99579.13;;;7.01;100.00
24031;BME280;12240;51.142;22.486;2023-04-21T01:16:28;99576.50;;;6.90;100.00
24031;BME280;12240;51.142;22.486;2023-04-21T01:18:59;99577.69;;;6.86;100.00
24031;BME280;12240;51.142;22.486;2023-04-21T01:21:28;99576.50;;;6.79;100.00
24031;BME280;12240;51.142;22.486;2023-04-21T01:24:01;99574.38;;;6.73;100.00
24031;BME280;12240;51.142;22.486;2023-04-21T01:26:28;99581.84;;;6.68;100.00
24031;BME280;12240;51.142;22.486;2023-04-21T01:28:57;99586.06;;;6.60;100.00
24031;BME280;12240;51.142;22.486;2023-04-21T01:31:25;99585.81;;;6.52;100.00
24031;BME280;12240;51.142;22.486;2023-04-21T01:33:54;99582.59;;;6.48;100.00
24031;BME280;12240;51.142;22.486;2023-04-21T01:36:22;99592.94;;;6.51;100.00
24031;BME280;12240;51.142;22.486;2023-04-21T01:38:52;99581.97;;;6.56;100.00
24031;BME280;12240;51.142;22.486;2023-04-21T01:41:22;99582.09;;;6.54;100.00
24031;BME280;12240;51.142;22.486;2023-04-21T01:43:50;99573.56;;;6.62;100.00
24031;BME280;12240;51.142;22.486;2023-04-21T01:46:21;99575.84;;;6.55;100.00
24031;BME280;12240;51.142;22.486;2023-04-21T01:48:49;99575.75;;;6.57;100.00
24031;BME280;12240;51.142;22.486;2023-04-21T01:51:18;99582.69;;;6.58;100.00
24031;BME280;12240;51.142;22.486;2023-04-21T01:53:46;99573.59;;;6.40;100.00
24031;BME280;12240;51.142;22.486;2023-04-21T01:56:14;99579.34;;;6.34;100.00
24031;BME280;12240;51.142;22.486;2023-04-21T01:58:42;99570.56;;;6.44;100.00
24031;BME280;12240;51.142;22.486;2023-04-21T02:01:11;99570.56;;;6.44;100.00
24031;BME280;12240;51.142;22.486;2023-04-21T02:03:38;99566.72;;;6.48;100.00
24031;BME280;12240;51.142;22.486;2023-04-21T02:06:08;99575.97;;;6.54;100.00
24031;BME280;12240;51.142;22.486;2023-04-21T02:08:36;99570.91;;;6.51;100.00
24031;BME280;12240;51.142;22.486;2023-04-21T02:11:04;99565.50;;;6.52;100.00
24031;BME280;12240;51.142;22.486;2023-04-21T02:13:32;99562.50;;;6.57;100.00
24031;BME280;12240;51.142;22.486;2023-04-21T02:16:00;99561.19;;;6.51;100.00
24031;BME280;12240;51.142;22.486;2023-04-21T02:18:40;99562.03;;;6.41;100.00
24031;BME280;12240;51.142;22.486;2023-04-21T02:21:09;99562.28;;;6.27;100.00
24031;BME280;12240;51.142;22.486;2023-04-21T02:23:37;99568.06;;;6.32;100.00
24031;BME280;12240;51.142;22.486;2023-04-21T02:26:05;99570.81;;;6.30;100.00
24031;BME280;12240;51.142;22.486;2023-04-21T02:28:34;99568.53;;;6.15;100.00
24031;BME280;12240;51.142;22.486;2023-04-21T02:31:02;99565.91;;;6.26;100.00
24031;BME280;12240;51.142;22.486;2023-04-21T02:33:33;99570.09;;;6.28;100.00
24031;BME280;12240;51.142;22.486;2023-04-21T02:36:02;99564.56;;;6.31;100.00
24031;BME280;12240;51.142;22.486;2023-04-21T02:38:30;99561.34;;;6.28;100.00
24031;BME280;12240;51.142;22.486;2023-04-21T02:40:58;99576.69;;;6.23;100.00
24031;BME280;12240;51.142;22.486;2023-04-21T02:43:26;99570.69;;;6.32;100.00
24031;BME280;12240;51.142;22.486;2023-04-21T02:45:55;99568.16;;;6.19;100.00
24031;BME280;12240;51.142;22.486;2023-04-21T02:48:23;99568.53;;;6.15;100.00
24031;BME280;12240;51.142;22.486;2023-04-21T02:50:51;99563.97;;;6.17;100.00
24031;BME280;12240;51.142;22.486;2023-04-21T02:53:22;99561.22;;;6.29;100.00
24031;BME280;12240;51.142;22.486;2023-04-21T02:55:51;99560.47;;;6.16;100.00
24031;BME280;12240;51.142;22.486;2023-04-21T02:58:20;99569.00;;;6.20;100.00
24031;BME280;12240;51.142;22.486;2023-04-21T03:00:48;99572.16;;;6.14;100.00
24031;BME280;12240;51.142;22.486;2023-04-21T03:03:16;99568.63;;;6.02;100.00
24031;BME280;12240;51.142;22.486;2023-04-21T03:05:44;99569.25;;;6.06;100.00
24031;BME280;12240;51.142;22.486;2023-04-21T03:08:12;99567.56;;;6.05;100.00
24031;BME280;12240;51.142;22.486;2023-04-21T03:10:40;99572.38;;;6.00;100.00
24031;BME280;12240;51.142;22.486;2023-04-21T03:13:09;99569.50;;;6.03;100.00
24031;BME280;12240;51.142;22.486;2023-04-21T03:15:37;99572.38;;;6.00;100.00
24031;BME280;12240;51.142;22.486;2023-04-21T03:18:05;99575.72;;;5.90;100.00
24031;BME280;12240;51.142;22.486;2023-04-21T03:20:33;99558.66;;;5.83;100.00
24031;BME280;12240;51.142;22.486;2023-04-21T03:23:01;99573.06;;;5.79;100.00
24031;BME280;12240;51.142;22.486;2023-04-21T03:25:29;99570.19;;;5.82;100.00
24031;BME280;12240;51.142;22.486;2023-04-21T03:27:57;99569.44;;;5.80;100.00
24031;BME280;12240;51.142;22.486;2023-04-21T03:30:25;99568.72;;;5.78;100.00
24031;BME280;12240;51.142;22.486;2023-04-21T03:32:53;99576.03;;;5.75;100.00
24031;BME280;12240;51.142;22.486;2023-04-21T03:35:26;99571.00;;;5.72;100.00
24031;BME280;12240;51.142;22.486;2023-04-21T03:37:54;99569.19;;;5.72;100.00
24031;BME280;12240;51.142;22.486;2023-04-21T03:40:22;99572.06;;;5.69;100.00
24031;BME280;12240;51.142;22.486;2023-04-21T03:42:50;99571.81;;;5.61;100.00
24031;BME280;12240;51.142;22.486;2023-04-21T03:45:19;99573.22;;;5.54;100.00
24031;BME280;12240;51.142;22.486;2023-04-21T03:47:54;99584.72;;;5.42;100.00
24031;BME280;12240;51.142;22.486;2023-04-21T03:50:22;99585.19;;;5.36;100.00
24031;BME280;12240;51.142;22.486;2023-04-21T03:52:50;99592.38;;;5.34;100.00
24031;BME280;12240;51.142;22.486;2023-04-21T03:55:18;99591.16;;;5.27;100.00
24031;BME280;12240;51.142;22.486;2023-04-21T03:57:46;99583.03;;;5.18;100.00
24031;BME280;12240;51.142;22.486;2023-04-21T04:00:15;99593.72;;;5.16;100.00
24031;BME280;12240;51.142;22.486;2023-04-21T04:02:44;99589.41;;;5.15;100.00
24031;BME280;12240;51.142;22.486;2023-04-21T04:05:13;99581.38;;;5.17;100.00
24031;BME280;12240;51.142;22.486;2023-04-21T04:07:41;99600.97;;;5.25;100.00
24031;BME280;12240;51.142;22.486;2023-04-21T04:10:09;99600.53;;;5.31;100.00
24031;BME280;12240;51.142;22.486;2023-04-21T04:12:38;99600.56;;;5.42;100.00
24031;BME280;12240;51.142;22.486;2023-04-21T04:15:07;99593.09;;;5.36;100.00
24031;BME280;12240;51.142;22.486;2023-04-21T04:17:35;99599.31;;;5.35;100.00
24031;BME280;12240;51.142;22.486;2023-04-21T04:20:06;99603.44;;;5.39;100.00
24031;BME280;12240;51.142;22.486;2023-04-21T04:22:35;99601.28;;;5.44;100.00
24031;BME280;12240;51.142;22.486;2023-04-21T04:25:04;99606.13;;;5.61;100.00
24031;BME280;12240;51.142;22.486;2023-04-21T04:27:32;99615.06;;;5.71;100.00
24031;BME280;12240;51.142;22.486;2023-04-21T04:30:01;99604.69;;;5.92;100.00
24031;BME280;12240;51.142;22.486;2023-04-21T04:32:30;99604.00;;;6.12;100.00
24031;BME280;12240;51.142;22.486;2023-04-21T04:35:00;99603.88;;;6.25;100.00
24031;BME280;12240;51.142;22.486;2023-04-21T04:37:29;99597.28;;;6.41;100.00
24031;BME280;12240;51.142;22.486;2023-04-21T04:39:58;99596.91;;;6.57;100.00
24031;BME280;12240;51.142;22.486;2023-04-21T04:42:26;99596.09;;;6.99;100.00
24031;BME280;12240;51.142;22.486;2023-04-21T04:44:55;99595.13;;;7.63;100.00
24031;BME280;12240;51.142;22.486;2023-04-21T04:47:24;99587.63;;;8.19;100.00
24031;BME280;12240;51.142;22.486;2023-04-21T04:49:52;99579.00;;;8.57;100.00
24031;BME280;12240;51.142;22.486;2023-04-21T04:52:20;99567.66;;;9.04;100.00
24031;BME280;12240;51.142;22.486;2023-04-21T04:54:48;99565.88;;;9.33;100.00
24031;BME280;12240;51.142;22.486;2023-04-21T04:57:16;99556.59;;;9.75;100.00
24031;BME280;12240;51.142;22.486;2023-04-21T04:59:44;99557.13;;;9.88;100.00
24031;BME280;12240;51.142;22.486;2023-04-21T05:02:13;99555.72;;;10.40;100.00
24031;BME280;12240;51.142;22.486;2023-04-21T05:04:41;99550.88;;;10.53;100.00
24031;BME280;12240;51.142;22.486;2023-04-21T05:07:09;99552.53;;;10.64;100.00
24031;BME280;12240;51.142;22.486;2023-04-21T05:09:38;99553.06;;;11.12;100.00
24031;BME280;12240;51.142;22.486;2023-04-21T05:12:07;99542.72;;;11.26;100.00
24031;BME280;12240;51.142;22.486;2023-04-21T05:14:35;99544.66;;;11.59;100.00
24031;BME280;12240;51.142;22.486;2023-04-21T05:17:03;99547.03;;;11.45;100.00
24031;BME280;12240;51.142;22.486;2023-04-21T05:19:35;99536.13;;;11.73;100.00
24031;BME280;12240;51.142;22.486;2023-04-21T05:22:04;99539.03;;;11.62;100.00
24031;BME280;12240;51.142;22.486;2023-04-21T05:24:36;99535.19;;;12.08;100.00
24031;BME280;12240;51.142;22.486;2023-04-21T05:27:04;99535.81;;;12.02;100.00
24031;BME280;12240;51.142;22.486;2023-04-21T05:29:33;99531.47;;;12.35;100.00
24031;BME280;12240;51.142;22.486;2023-04-21T05:32:03;99529.72;;;12.43;100.00
24031;BME280;12240;51.142;22.486;2023-04-21T05:34:32;99522.75;;;12.58;100.00
24031;BME280;12240;51.142;22.486;2023-04-21T05:37:00;99514.31;;;12.79;100.00
24031;BME280;12240;51.142;22.486;2023-04-21T05:39:29;99520.66;;;12.86;100.00
24031;BME280;12240;51.142;22.486;2023-04-21T05:41:57;99521.91;;;13.08;100.00
24031;BME280;12240;51.142;22.486;2023-04-21T05:44:26;99520.06;;;13.08;100.00
24031;BME280;12240;51.142;22.486;2023-04-21T05:46:54;99517.91;;;13.12;100.00
24031;BME280;12240;51.142;22.486;2023-04-21T05:49:22;99516.91;;;13.13;100.00
24031;BME280;12240;51.142;22.486;2023-04-21T05:51:50;99511.41;;;13.30;100.00
24031;BME280;12240;51.142;22.486;2023-04-21T05:54:19;99511.59;;;13.45;100.00
24031;BME280;12240;51.142;22.486;2023-04-21T05:56:47;99510.06;;;13.66;100.00
24031;BME280;12240;51.142;22.486;2023-04-21T05:59:15;99509.88;;;13.76;100.00
24031;BME280;12240;51.142;22.486;2023-04-21T06:01:43;99498.06;;;14.17;99.90
24031;BME280;12240;51.142;22.486;2023-04-21T06:04:12;99505.09;;;14.34;98.19
24031;BME280;12240;51.142;22.486;2023-04-21T06:06:40;99498.50;;;14.45;97.22
24031;BME280;12240;51.142;22.486;2023-04-21T06:09:09;99491.34;;;14.29;94.81
24031;BME280;12240;51.142;22.486;2023-04-21T06:11:37;99491.00;;;14.40;94.43
24031;BME280;12240;51.142;22.486;2023-04-21T06:14:05;99489.84;;;14.65;93.26
24031;BME280;12240;51.142;22.486;2023-04-21T06:16:33;99490.75;;;14.88;92.32
24031;BME280;12240;51.142;22.486;2023-04-21T06:19:02;99490.78;;;15.11;93.11
24031;BME280;12240;51.142;22.486;2023-04-21T06:21:31;99485.22;;;15.35;91.63
24031;BME280;12240;51.142;22.486;2023-04-21T06:24:00;99489.81;;;15.27;88.68
24031;BME280;12240;51.142;22.486;2023-04-21T06:26:29;99482.97;;;15.47;87.44
24031;BME280;12240;51.142;22.486;2023-04-21T06:28:57;99484.28;;;15.51;86.71
24031;BME280;12240;51.142;22.486;2023-04-21T06:31:25;99482.09;;;15.69;85.23
24031;BME280;12240;51.142;22.486;2023-04-21T06:33:53;99474.44;;;15.95;86.04
24031;BME280;12240;51.142;22.486;2023-04-21T06:36:21;99482.13;;;15.98;85.91
24031;BME280;12240;51.142;22.486;2023-04-21T06:38:50;99472.34;;;16.19;84.81
24031;BME280;12240;51.142;22.486;2023-04-21T06:41:18;99473.44;;;16.25;83.01
24031;BME280;12240;51.142;22.486;2023-04-21T06:43:46;99465.94;;;16.50;83.50
24031;BME280;12240;51.142;22.486;2023-04-21T06:46:15;99473.25;;;16.56;82.68
24031;BME280;12240;51.142;22.486;2023-04-21T06:48:43;99469.81;;;16.62;81.70
24031;BME280;12240;51.142;22.486;2023-04-21T06:51:11;99468.81;;;16.84;80.71
24031;BME280;12240;51.142;22.486;2023-04-21T06:53:39;99470.78;;;17.11;80.23
24031;BME280;12240;51.142;22.486;2023-04-21T06:56:07;99465.72;;;17.01;78.42
24031;BME280;12240;51.142;22.486;2023-04-21T06:58:34;99478.38;;;17.28;78.32
24031;BME280;12240;51.142;22.486;2023-04-21T07:01:03;99466.22;;;17.32;77.06
24031;BME280;12240;51.142;22.486;2023-04-21T07:03:31;99465.53;;;17.45;76.61
24031;BME280;12240;51.142;22.486;2023-04-21T07:06:00;99459.44;;;17.36;76.23
24031;BME280;12240;51.142;22.486;2023-04-21T07:08:28;99472.56;;;17.67;76.57
24031;BME280;12240;51.142;22.486;2023-04-21T07:10:57;99468.94;;;17.81;76.48
24031;BME280;12240;51.142;22.486;2023-04-21T07:13:25;99472.13;;;17.91;75.59
24031;BME280;12240;51.142;22.486;2023-04-21T07:15:54;99465.84;;;18.12;72.91
24031;BME280;12240;51.142;22.486;2023-04-21T07:18:22;99459.09;;;18.29;73.08
24031;BME280;12240;51.142;22.486;2023-04-21T07:20:51;99464.31;;;18.78;73.93
24031;BME280;12240;51.142;22.486;2023-04-21T07:23:19;99453.69;;;18.70;70.82
24031;BME280;12240;51.142;22.486;2023-04-21T07:25:47;99463.25;;;18.66;70.72
24031;BME280;12240;51.142;22.486;2023-04-21T07:28:15;99453.34;;;18.92;70.10
24031;BME280;12240;51.142;22.486;2023-04-21T07:30:45;99451.97;;;19.22;68.51
24031;BME280;12240;51.142;22.486;2023-04-21T07:33:13;99461.78;;;19.43;68.59
24031;BME280;12240;51.142;22.486;2023-04-21T07:35:41;99456.81;;;19.46;67.76
24031;BME280;12240;51.142;22.486;2023-04-21T07:38:11;99458.47;;;19.41;67.70
24031;BME280;12240;51.142;22.486;2023-04-21T07:40:39;99455.13;;;19.32;67.23
24031;BME280;12240;51.142;22.486;2023-04-21T07:43:07;99450.97;;;19.62;66.07
24031;BME280;12240;51.142;22.486;2023-04-21T07:45:35;99446.22;;;19.45;65.21
24031;BME280;12240;51.142;22.486;2023-04-21T07:48:03;99446.00;;;19.53;63.95
24031;BME280;12240;51.142;22.486;2023-04-21T07:50:34;99448.44;;;20.00;64.70
24031;BME280;12240;51.142;22.486;2023-04-21T07:53:03;99437.59;;;20.33;63.54
24031;BME280;12240;51.142;22.486;2023-04-21T07:55:32;99442.38;;;20.31;63.10
24031;BME280;12240;51.142;22.486;2023-04-21T07:58:01;99433.00;;;20.33;63.44
24031;BME280;12240;51.142;22.486;2023-04-21T08:00:29;99423.81;;;20.41;61.03
24031;BME280;12240;51.142;22.486;2023-04-21T08:02:57;99430.72;;;20.74;62.76
24031;BME280;12240;51.142;22.486;2023-04-21T08:05:26;99425.91;;;20.83;59.97
24031;BME280;12240;51.142;22.486;2023-04-21T08:08:01;99431.25;;;21.03;62.01
24031;BME280;12240;51.142;22.486;2023-04-21T08:10:29;99432.66;;;21.05;60.58
24031;BME280;12240;51.142;22.486;2023-04-21T08:12:57;99423.34;;;21.01;58.80
24031;BME280;12240;51.142;22.486;2023-04-21T08:15:25;99422.03;;;20.66;58.65
24031;BME280;12240;51.142;22.486;2023-04-21T08:17:53;99426.44;;;21.05;58.17
24031;BME280;12240;51.142;22.486;2023-04-21T08:20:22;99419.69;;;20.76;57.66
24031;BME280;12240;51.142;22.486;2023-04-21T08:22:50;99407.25;;;20.68;55.62
24031;BME280;12240;51.142;22.486;2023-04-21T08:25:18;99422.16;;;20.84;56.70
24031;BME280;12240;51.142;22.486;2023-04-21T08:27:46;99431.19;;;21.09;56.60
24031;BME280;12240;51.142;22.486;2023-04-21T08:30:15;99418.09;;;21.06;54.70
24031;BME280;12240;51.142;22.486;2023-04-21T08:32:43;99411.72;;;21.25;55.77
24031;BME280;12240;51.142;22.486;2023-04-21T08:35:11;99413.81;;;21.23;57.16
24031;BME280;12240;51.142;22.486;2023-04-21T08:37:39;99419.03;;;21.49;56.79
24031;BME280;12240;51.142;22.486;2023-04-21T08:40:08;99411.22;;;21.59;54.74
24031;BME280;12240;51.142;22.486;2023-04-21T08:42:37;99408.06;;;21.62;53.93
24031;BME280;12240;51.142;22.486;2023-04-21T08:45:08;99403.47;;;21.38;53.12
24031;BME280;12240;51.142;22.486;2023-04-21T08:47:40;99401.88;;;21.55;52.92
24031;BME280;12240;51.142;22.486;2023-04-21T08:50:12;99409.84;;;21.50;53.53
24031;BME280;12240;51.142;22.486;2023-04-21T08:52:41;99403.84;;;20.42;51.94
24031;BME280;12240;51.142;22.486;2023-04-21T08:55:10;99399.56;;;21.34;52.91
24031;BME280;12240;51.142;22.486;2023-04-21T08:57:40;99404.41;;;21.50;52.12
24031;BME280;12240;51.142;22.486;2023-04-21T09:00:08;99403.31;;;21.58;52.18
24031;BME280;12240;51.142;22.486;2023-04-21T09:02:58;99396.06;;;21.52;51.48
24031;BME280;12240;51.142;22.486;2023-04-21T09:05:31;99384.50;;;21.63;50.66
24031;BME280;12240;51.142;22.486;2023-04-21T09:08:10;99392.19;;;21.66;49.85
24031;BME280;12240;51.142;22.486;2023-04-21T09:10:47;99394.66;;;21.67;49.92
24031;BME280;12240;51.142;22.486;2023-04-21T09:13:17;99389.94;;;21.63;49.99
24031;BME280;12240;51.142;22.486;2023-04-21T09:15:49;99378.53;;;21.54;48.42
24031;BME280;12240;51.142;22.486;2023-04-21T09:18:25;99384.44;;;21.69;49.34
24031;BME280;12240;51.142;22.486;2023-04-21T09:21:15;99381.03;;;21.98;49.15
24031;BME280;12240;51.142;22.486;2023-04-21T09:23:49;99376.00;;;22.02;49.65
24031;BME280;12240;51.142;22.486;2023-04-21T09:26:20;99365.53;;;22.24;48.38
24031;BME280;12240;51.142;22.486;2023-04-21T09:28:52;99376.06;;;21.95;47.87
24031;BME280;12240;51.142;22.486;2023-04-21T09:31:23;99368.28;;;22.17;48.15
24031;BME280;12240;51.142;22.486;2023-04-21T09:33:55;99371.69;;;22.13;48.17
24031;BME280;12240;51.142;22.486;2023-04-21T09:36:29;99379.22;;;22.11;48.73
24031;BME280;12240;51.142;22.486;2023-04-21T09:39:01;99367.50;;;22.17;48.70
24031;BME280;12240;51.142;22.486;2023-04-21T09:41:49;99363.03;;;22.04;47.67
24031;BME280;12240;51.142;22.486;2023-04-21T09:44:17;99372.41;;;21.41;48.54
24031;BME280;12240;51.142;22.486;2023-04-21T09:46:49;99370.00;;;21.75;48.86
24031;BME280;12240;51.142;22.486;2023-04-21T09:49:18;99364.94;;;22.22;47.84
24031;BME280;12240;51.142;22.486;2023-04-21T09:51:49;99359.88;;;21.89;47.12
24031;BME280;12240;51.142;22.486;2023-04-21T09:54:29;99357.25;;;22.01;48.05
24031;BME280;12240;51.142;22.486;2023-04-21T09:57:02;99350.75;;;21.83;46.96
24031;BME280;12240;51.142;22.486;2023-04-21T09:59:44;99342.47;;;22.15;48.73
24031;BME280;12240;51.142;22.486;2023-04-21T10:02:12;99367.09;;;21.95;46.95
24031;BME280;12240;51.142;22.486;2023-04-21T10:04:41;99355.06;;;22.09;46.48
24031;BME280;12240;51.142;22.486;2023-04-21T10:07:11;99349.91;;;22.37;46.54
24031;BME280;12240;51.142;22.486;2023-04-21T10:09:54;99347.63;;;22.52;46.39
24031;BME280;12240;51.142;22.486;2023-04-21T10:12:24;99341.00;;;21.82;44.80
24031;BME280;12240;51.142;22.486;2023-04-21T10:14:55;99346.22;;;21.77;44.03
24031;BME280;12240;51.142;22.486;2023-04-21T10:17:25;99343.56;;;21.71;44.79
24031;BME280;12240;51.142;22.486;2023-04-21T10:19:57;99340.53;;;21.61;43.81
24031;BME280;12240;51.142;22.486;2023-04-21T10:22:31;99344.88;;;21.86;46.66
24031;BME280;12240;51.142;22.486;2023-04-21T10:25:02;99343.88;;;22.35;46.33
24031;BME280;12240;51.142;22.486;2023-04-21T10:27:41;99333.84;;;22.54;45.78
24031;BME280;12240;51.142;22.486;2023-04-21T10:30:23;99340.41;;;22.76;46.34
24031;BME280;12240;51.142;22.486;2023-04-21T10:33:04;99332.34;;;22.58;46.50
24031;BME280;12240;51.142;22.486;2023-04-21T10:38:42;99331.69;;;21.72;44.40
24031;BME280;12240;51.142;22.486;2023-04-21T10:41:30;99323.44;;;22.03;44.63
24031;BME280;12240;51.142;22.486;2023-04-21T10:44:00;99326.31;;;22.56;44.84
24031;BME280;12240;51.142;22.486;2023-04-21T10:46:46;99320.34;;;22.47;44.03
24031;BME280;12240;51.142;22.486;2023-04-21T10:49:26;99330.25;;;23.13;45.21
24031;BME280;12240;51.142;22.486;2023-04-21T10:55:03;99321.31;;;23.35;45.06
24031;BME280;12240;51.142;22.486;2023-04-21T10:57:33;99308.13;;;22.09;43.27
24031;BME280;12240;51.142;22.486;2023-04-21T11:00:03;99306.22;;;22.27;43.31
24031;BME280;12240;51.142;22.486;2023-04-21T11:02:35;99309.03;;;22.80;45.41
24031;BME280;12240;51.142;22.486;2023-04-21T11:05:09;99294.78;;;22.55;44.89
24031;BME280;12240;51.142;22.486;2023-04-21T11:07:38;99303.16;;;22.94;44.84
24031;BME280;12240;51.142;22.486;2023-04-21T11:10:07;99293.78;;;22.67;43.58
24031;BME280;12240;51.142;22.486;2023-04-21T11:12:39;99300.66;;;22.81;44.02
24031;BME280;12240;51.142;22.486;2023-04-21T11:15:10;99313.69;;;23.02;44.79
24031;BME280;12240;51.142;22.486;2023-04-21T11:17:38;99290.50;;;22.47;44.71
24031;BME280;12240;51.142;22.486;2023-04-21T11:20:10;99304.59;;;23.08;44.24
24031;BME280;12240;51.142;22.486;2023-04-21T11:22:38;99307.25;;;23.38;45.14
24031;BME280;12240;51.142;22.486;2023-04-21T11:25:16;99309.34;;;24.05;45.33
24031;BME280;12240;51.142;22.486;2023-04-21T11:27:57;99296.09;;;22.93;43.12
24031;BME280;12240;51.142;22.486;2023-04-21T11:30:33;99301.81;;;23.50;45.19
24031;BME280;12240;51.142;22.486;2023-04-21T11:33:02;99295.53;;;23.72;44.89
24031;BME280;12240;51.142;22.486;2023-04-21T11:35:31;99282.97;;;24.06;45.73
24031;BME280;12240;51.142;22.486;2023-04-21T11:38:04;99291.94;;;23.95;44.45
24031;BME280;12240;51.142;22.486;2023-04-21T11:40:48;99293.22;;;23.53;44.18
24031;BME280;12240;51.142;22.486;2023-04-21T11:47:21;99285.88;;;24.44;44.52
24031;BME280;12240;51.142;22.486;2023-04-21T11:50:00;99287.44;;;23.89;44.14
24031;BME280;12240;51.142;22.486;2023-04-21T11:52:31;99283.97;;;24.16;43.81
24031;BME280;12240;51.142;22.486;2023-04-21T11:55:03;99276.22;;;24.37;43.51
24031;BME280;12240;51.142;22.486;2023-04-21T11:57:33;99285.34;;;23.79;43.23
24031;BME280;12240;51.142;22.486;2023-04-21T12:00:04;99288.28;;;24.01;43.46
24031;BME280;12240;51.142;22.486;2023-04-21T12:02:33;99273.13;;;24.05;42.17
24031;BME280;12240;51.142;22.486;2023-04-21T12:05:12;99267.75;;;23.82;43.14
24031;BME280;12240;51.142;22.486;2023-04-21T12:07:45;99284.81;;;24.45;45.40
24031;BME280;12240;51.142;22.486;2023-04-21T12:10:20;99284.25;;;24.60;43.90
24031;BME280;12240;51.142;22.486;2023-04-21T12:12:48;99271.16;;;24.29;42.19
24031;BME280;12240;51.142;22.486;2023-04-21T12:15:19;99259.56;;;23.93;42.78
24031;BME280;12240;51.142;22.486;2023-04-21T12:17:51;99267.59;;;24.00;43.26
24031;BME280;12240;51.142;22.486;2023-04-21T12:20:23;99278.81;;;24.88;44.77
24031;BME280;12240;51.142;22.486;2023-04-21T12:22:52;99276.25;;;25.31;43.70
24031;BME280;12240;51.142;22.486;2023-04-21T12:25:20;99262.78;;;23.67;42.79
24031;BME280;12240;51.142;22.486;2023-04-21T12:27:56;99256.03;;;24.49;42.12
24031;BME280;12240;51.142;22.486;2023-04-21T12:30:25;99246.44;;;23.90;41.44
24031;BME280;12240;51.142;22.486;2023-04-21T12:32:53;99254.63;;;24.47;43.02
24031;BME280;12240;51.142;22.486;2023-04-21T12:35:22;99260.41;;;24.50;42.75
24031;BME280;12240;51.142;22.486;2023-04-21T12:37:51;99252.34;;;24.27;41.61
24031;BME280;12240;51.142;22.486;2023-04-21T12:40:19;99241.44;;;24.10;41.42
24031;BME280;12240;51.142;22.486;2023-04-21T12:42:47;99231.88;;;23.96;41.08
24031;BME280;12240;51.142;22.486;2023-04-21T12:45:16;99240.00;;;24.36;42.00
24031;BME280;12240;51.142;22.486;2023-04-21T12:47:44;99252.88;;;24.85;42.74
24031;BME280;12240;51.142;22.486;2023-04-21T12:50:14;99234.13;;;24.28;40.45
24031;BME280;12240;51.142;22.486;2023-04-21T12:52:43;99245.88;;;24.89;42.74
24031;BME280;12240;51.142;22.486;2023-04-21T12:55:11;99238.13;;;24.98;41.67
24031;BME280;12240;51.142;22.486;2023-04-21T12:57:40;99236.28;;;25.20;41.42
24031;BME280;12240;51.142;22.486;2023-04-21T13:00:09;99234.44;;;25.42;41.84
24031;BME280;12240;51.142;22.486;2023-04-21T13:02:40;99227.09;;;24.60;41.27
24031;BME280;12240;51.142;22.486;2023-04-21T13:05:09;99237.97;;;24.60;41.84
24031;BME280;12240;51.142;22.486;2023-04-21T13:07:39;99235.41;;;24.37;42.37
24031;BME280;12240;51.142;22.486;2023-04-21T13:10:08;99239.34;;;24.46;42.72
24031;BME280;12240;51.142;22.486;2023-04-21T13:12:37;99234.78;;;24.63;42.46
24031;BME280;12240;51.142;22.486;2023-04-21T13:15:06;99227.75;;;24.67;42.45